Time;durP1;ratioP1;P1;durP2;ratioP2;P2;SDS_P1;SDS_P2;PMS_P1;PMS_P2;Temp;Humidity;BMP_temperature;BMP_pressure;BME280_temperature;BME280_humidity;BME280_pressure;Samples;Min_cycle;Max_cycle;Signal;HPM_P1;HPM_P2
2023/12/05 00:01:18;;;;;;;;;2.00;1.67;;;;;;;;4922458;28;45355;-82
2023/12/05 00:03:44;;;;;;;;;2.50;2.00;;;;;;;;4905201;28;48291;-81
2023/12/05 00:06:09;;;;;;;;;2.00;2.00;;;;;;;;4905402;28;45467;-80
2023/12/05 00:08:35;;;;;;;;;1.67;1.67;;;;;;;;4922543;28;45504;-81
2023/12/05 00:11:02;;;;;;;;;2.00;2.00;;;;;;;;4905186;28;45974;-81
2023/12/05 00:13:27;;;;;;;;;2.00;2.00;;;;;;;;4921473;28;46682;-80
2023/12/05 00:15:52;;;;;;;;;2.33;1.00;;;;;;;;4905044;28;45306;-81
2023/12/05 00:18:17;;;;;;;;;1.00;1.00;;;;;;;;4922251;28;45391;-80
2023/12/05 00:20:43;;;;;;;;;2.00;2.00;;;;;;;;4922276;28;45409;-81
2023/12/05 00:23:08;;;;;;;;;2.00;2.00;;;;;;;;4922206;28;45303;-81
2023/12/05 00:25:33;;;;;;;;;5.00;2.00;;;;;;;;4922205;28;45224;-81
2023/12/05 00:27:58;;;;;;;;;2.00;2.00;;;;;;;;4922221;28;45360;-80
2023/12/05 00:30:23;;;;;;;;;1.00;1.00;;;;;;;;4922075;28;45446;-80
2023/12/05 00:32:48;;;;;;;;;1.33;1.33;;;;;;;;4922309;28;45326;-81
2023/12/05 00:35:16;;;;;;;;;0.00;0.00;;;;;;;;4921808;28;45163;-81
2023/12/05 00:37:41;;;;;;;;;0.67;0.67;;;;;;;;4904833;28;45434;-80
2023/12/05 00:40:06;;;;;;;;;1.00;1.00;;;;;;;;4921501;28;45470;-81
2023/12/05 00:42:31;;;;;;;;;1.00;1.00;;;;;;;;4921700;28;45845;-81
2023/12/05 00:44:56;;;;;;;;;3.00;1.00;;;;;;;;4905003;28;45348;-81
2023/12/05 00:47:22;;;;;;;;;2.00;2.00;;;;;;;;4922004;28;45328;-82
2023/12/05 00:49:47;;;;;;;;;2.67;2.67;;;;;;;;4921834;28;45442;-81
2023/12/05 00:52:12;;;;;;;;;2.00;0.00;;;;;;;;4922061;28;45770;-81
2023/12/05 00:54:37;;;;;;;;;3.00;2.00;;;;;;;;4921941;28;45395;-82
2023/12/05 00:57:03;;;;;;;;;1.75;1.75;;;;;;;;4921946;28;45620;-81
2023/12/05 00:59:28;;;;;;;;;2.00;1.00;;;;;;;;4921613;28;45291;-81
2023/12/05 01:01:53;;;;;;;;;0.00;0.00;;;;;;;;4904694;28;48537;-81
2023/12/05 01:04:18;;;;;;;;;0.00;0.00;;;;;;;;4904425;28;45485;-82
2023/12/05 01:06:43;;;;;;;;;1.00;1.00;;;;;;;;4904749;28;45314;-80
2023/12/05 01:09:10;;;;;;;;;1.00;1.00;;;;;;;;4921804;28;45443;-82
2023/12/05 01:11:35;;;;;;;;;2.00;0.00;;;;;;;;4925034;28;45991;-82
2023/12/05 01:14:00;;;;;;;;;1.00;1.00;;;;;;;;4907336;28;45370;-80
2023/12/05 01:16:25;;;;;;;;;1.00;1.00;;;;;;;;4925090;28;45341;-81
2023/12/05 01:18:50;;;;;;;;;1.00;1.00;;;;;;;;4924902;28;45389;-81
2023/12/05 01:21:16;;;;;;;;;2.67;1.00;;;;;;;;4925028;28;45452;-82
2023/12/05 01:23:41;;;;;;;;;0.00;0.00;;;;;;;;4925009;28;45309;-80
2023/12/05 01:26:06;;;;;;;;;0.00;0.00;;;;;;;;4907693;28;45323;-81
2023/12/05 01:28:32;;;;;;;;;1.00;1.00;;;;;;;;4924549;28;45550;-81
2023/12/05 01:30:57;;;;;;;;;1.00;1.00;;;;;;;;4924646;28;45337;-81
2023/12/05 01:33:22;;;;;;;;;1.33;1.33;;;;;;;;4907376;28;45833;-80
2023/12/05 01:35:47;;;;;;;;;0.00;0.00;;;;;;;;4924975;28;45341;-82
2023/12/05 01:38:12;;;;;;;;;1.00;1.00;;;;;;;;4907369;28;45774;-81
2023/12/05 01:40:37;;;;;;;;;1.00;1.00;;;;;;;;4907219;28;47398;-82
2023/12/05 01:43:03;;;;;;;;;1.00;1.00;;;;;;;;4907352;28;45330;-80
2023/12/05 01:45:28;;;;;;;;;2.33;1.00;;;;;;;;4907408;28;45473;-81
2023/12/05 01:47:54;;;;;;;;;1.00;0.00;;;;;;;;4907182;28;46096;-82
2023/12/05 01:50:25;;;;;;;;;0.67;0.67;;;;;;;;4906291;28;47073;-81
2023/12/05 01:52:54;;;;;;;;;1.00;1.00;;;;;;;;4924497;28;45409;-82
2023/12/05 01:55:21;;;;;;;;;1.00;0.33;;;;;;;;4924616;28;45217;-83
2023/12/05 01:57:47;;;;;;;;;1.00;0.00;;;;;;;;4923860;28;45446;-81
2023/12/05 02:00:13;;;;;;;;;0.00;0.00;;;;;;;;4924080;28;45431;-81
2023/12/05 02:02:39;;;;;;;;;0.00;0.00;;;;;;;;4924249;28;45263;-82
2023/12/05 02:05:04;;;;;;;;;1.00;1.00;;;;;;;;4924235;28;45587;-82
2023/12/05 02:07:30;;;;;;;;;0.00;0.00;;;;;;;;4924266;28;45409;-81
2023/12/05 02:09:55;;;;;;;;;2.00;1.00;;;;;;;;4924135;28;46585;-82
2023/12/05 02:12:20;;;;;;;;;1.00;0.00;;;;;;;;4923813;28;45423;-81
2023/12/05 02:14:46;;;;;;;;;1.00;1.00;;;;;;;;4907120;28;45333;-81
2023/12/05 02:17:17;;;;;;;;;0.67;0.67;;;;;;;;4906625;28;46615;-82
2023/12/05 02:19:42;;;;;;;;;1.00;1.00;;;;;;;;4923264;28;45489;-82
2023/12/05 02:22:11;;;;;;;;;1.00;1.00;;;;;;;;4923733;28;45522;-81
2023/12/05 02:25:00;;;;;;;;;0.00;0.00;;;;;;;;4924178;28;45299;-80
2023/12/05 02:27:34;;;;;;;;;0.00;0.00;;;;;;;;4879841;28;46479;-81
2023/12/05 02:29:59;;;;;;;;;1.00;1.00;;;;;;;;4906588;28;47199;-81
2023/12/05 02:32:24;;;;;;;;;0.00;0.00;;;;;;;;4906422;28;45335;-82
2023/12/05 02:34:50;;;;;;;;;1.00;0.00;;;;;;;;4923874;28;45590;-82
2023/12/05 02:37:18;;;;;;;;;1.00;1.00;;;;;;;;4906576;28;46416;-82
2023/12/05 02:39:47;;;;;;;;;1.00;1.00;;;;;;;;4903306;29;48420;-82
2023/12/05 02:42:14;;;;;;;;;1.00;1.00;;;;;;;;4904730;28;45293;-82
2023/12/05 02:44:42;;;;;;;;;1.00;1.00;;;;;;;;4904635;28;45317;-79
2023/12/05 02:47:08;;;;;;;;;1.00;1.00;;;;;;;;4904478;29;45506;-80
2023/12/05 02:49:33;;;;;;;;;0.00;0.00;;;;;;;;4902614;29;48082;-80
2023/12/05 02:51:58;;;;;;;;;1.00;1.00;;;;;;;;4904765;29;45348;-81
2023/12/05 02:54:23;;;;;;;;;0.00;0.00;;;;;;;;4903270;29;45427;-81
2023/12/05 02:56:48;;;;;;;;;0.33;0.33;;;;;;;;4904219;29;45367;-80
2023/12/05 02:59:14;;;;;;;;;0.00;0.00;;;;;;;;4904239;29;45533;-80
2023/12/05 03:01:42;;;;;;;;;0.00;0.00;;;;;;;;4904453;29;45295;-81
2023/12/05 03:04:07;;;;;;;;;0.00;0.00;;;;;;;;4904664;28;45311;-81
2023/12/05 03:06:32;;;;;;;;;0.00;0.00;;;;;;;;4903155;29;47209;-81
2023/12/05 03:09:01;;;;;;;;;0.00;0.00;;;;;;;;4903260;29;48287;-81
2023/12/05 03:11:26;;;;;;;;;1.33;0.00;;;;;;;;4904384;28;45284;-82
2023/12/05 03:13:52;;;;;;;;;0.00;0.00;;;;;;;;4902416;29;45806;-82
2023/12/05 03:16:17;;;;;;;;;0.00;0.00;;;;;;;;4904588;29;45371;-81
2023/12/05 03:18:42;;;;;;;;;0.00;0.00;;;;;;;;4903240;29;47094;-81
2023/12/05 03:21:07;;;;;;;;;0.00;0.00;;;;;;;;4903713;29;45646;-83
2023/12/05 03:23:32;;;;;;;;;0.00;0.00;;;;;;;;4903486;29;45380;-82
2023/12/05 03:25:58;;;;;;;;;0.33;0.33;;;;;;;;4904161;29;45449;-82
2023/12/05 03:28:23;;;;;;;;;0.00;0.00;;;;;;;;4902609;29;48491;-83
2023/12/05 03:30:48;;;;;;;;;0.00;0.00;;;;;;;;4904325;29;45315;-82
2023/12/05 03:33:13;;;;;;;;;0.00;0.00;;;;;;;;4903445;29;45274;-83
2023/12/05 03:35:38;;;;;;;;;0.33;0.33;;;;;;;;4903867;29;45318;-84
2023/12/05 03:38:03;;;;;;;;;0.00;0.00;;;;;;;;4905160;28;45761;-81
2023/12/05 03:40:29;;;;;;;;;0.00;0.00;;;;;;;;4905714;28;45553;-83
2023/12/05 03:42:54;;;;;;;;;0.00;0.00;;;;;;;;4923148;28;45271;-82
2023/12/05 03:45:19;;;;;;;;;1.00;0.00;;;;;;;;4922847;28;45574;-82
2023/12/05 03:47:44;;;;;;;;;0.00;0.00;;;;;;;;4922909;28;45315;-83
2023/12/05 03:50:10;;;;;;;;;0.00;0.00;;;;;;;;4922976;28;45285;-83
2023/12/05 03:52:35;;;;;;;;;0.00;0.00;;;;;;;;4905617;28;45271;-83
2023/12/05 03:55:00;;;;;;;;;0.00;0.00;;;;;;;;4890613;28;45906;-79
2023/12/05 03:57:25;;;;;;;;;0.00;0.00;;;;;;;;4922352;28;45338;-82
2023/12/05 03:59:50;;;;;;;;;0.00;0.00;;;;;;;;4922785;28;45301;-81
2023/12/05 04:02:16;;;;;;;;;0.00;0.00;;;;;;;;4905793;28;45496;-82
2023/12/05 04:04:41;;;;;;;;;0.00;0.00;;;;;;;;4922673;28;45295;-81
2023/12/05 04:07:06;;;;;;;;;0.00;0.00;;;;;;;;4922607;28;45633;-81
2023/12/05 04:09:31;;;;;;;;;0.00;0.00;;;;;;;;4905538;28;45522;-81
2023/12/05 04:11:57;;;;;;;;;0.00;0.00;;;;;;;;4905521;28;45560;-83
2023/12/05 04:14:23;;;;;;;;;0.00;0.00;;;;;;;;4922453;28;45284;-83
2023/12/05 04:16:48;;;;;;;;;0.00;0.00;;;;;;;;4922338;28;46503;-84
2023/12/05 04:19:13;;;;;;;;;0.00;0.00;;;;;;;;4922545;28;45205;-82
2023/12/05 04:21:38;;;;;;;;;0.00;0.00;;;;;;;;4922666;28;45549;-82
2023/12/05 04:24:03;;;;;;;;;0.00;0.00;;;;;;;;4922547;28;45359;-82
2023/12/05 04:26:29;;;;;;;;;0.00;0.00;;;;;;;;4905097;28;48265;-84
2023/12/05 04:28:54;;;;;;;;;0.00;0.00;;;;;;;;4922180;28;45261;-82
2023/12/05 04:31:19;;;;;;;;;0.00;0.00;;;;;;;;4922426;28;45181;-83
2023/12/05 04:33:44;;;;;;;;;0.00;0.00;;;;;;;;4905041;28;45484;-83
2023/12/05 04:36:10;;;;;;;;;0.00;0.00;;;;;;;;4904810;28;47199;-84
2023/12/05 04:38:36;;;;;;;;;1.00;0.00;;;;;;;;4904904;28;45232;-83
2023/12/05 04:41:01;;;;;;;;;0.00;0.00;;;;;;;;4905244;28;45387;-84
2023/12/05 04:43:26;;;;;;;;;0.00;0.00;;;;;;;;4904665;28;45887;-85
2023/12/05 04:45:51;;;;;;;;;0.00;0.00;;;;;;;;4922113;28;45451;-83
2023/12/05 04:48:16;;;;;;;;;0.00;0.00;;;;;;;;4905014;28;45350;-83
2023/12/05 04:50:43;;;;;;;;;0.67;0.00;;;;;;;;4922368;28;45253;-83
2023/12/05 04:53:08;;;;;;;;;0.00;0.00;;;;;;;;4921978;28;45489;-82
2023/12/05 04:55:33;;;;;;;;;0.00;0.00;;;;;;;;4921891;28;46684;-81
2023/12/05 04:57:58;;;;;;;;;0.00;0.00;;;;;;;;4921703;28;45438;-83
2023/12/05 05:00:23;;;;;;;;;1.00;0.00;;;;;;;;4904949;28;45304;-84
2023/12/05 05:02:48;;;;;;;;;0.00;0.00;;;;;;;;4922098;28;45306;-84
2023/12/05 05:05:14;;;;;;;;;0.00;0.00;;;;;;;;4904814;28;47215;-84
2023/12/05 05:07:39;;;;;;;;;0.00;0.00;;;;;;;;4922060;28;45425;-85
2023/12/05 05:10:04;;;;;;;;;1.00;0.00;;;;;;;;4922141;28;45374;-85
2023/12/05 05:12:30;;;;;;;;;0.00;0.00;;;;;;;;4921604;28;45554;-84
2023/12/05 05:14:55;;;;;;;;;0.00;0.00;;;;;;;;4921907;28;45324;-84
2023/12/05 05:17:20;;;;;;;;;0.00;0.00;;;;;;;;4904716;28;45864;-85
2023/12/05 05:19:46;;;;;;;;;0.00;0.00;;;;;;;;4904787;28;45296;-84
2023/12/05 05:22:11;;;;;;;;;0.00;0.00;;;;;;;;4904720;28;46774;-84
2023/12/05 05:24:37;;;;;;;;;0.00;0.00;;;;;;;;4904924;28;46954;-85
2023/12/05 05:27:03;;;;;;;;;0.00;0.00;;;;;;;;4922242;28;45374;-85
2023/12/05 05:29:28;;;;;;;;;0.00;0.00;;;;;;;;4904559;28;45281;-85
2023/12/05 05:31:53;;;;;;;;;0.00;0.00;;;;;;;;4921932;28;45180;-85
2023/12/05 05:34:18;;;;;;;;;0.33;0.33;;;;;;;;4904157;28;47080;-83
2023/12/05 05:36:43;;;;;;;;;0.00;0.00;;;;;;;;4921608;28;45456;-84
2023/12/05 05:39:09;;;;;;;;;1.00;1.00;;;;;;;;4904584;28;45412;-84
2023/12/05 05:41:34;;;;;;;;;0.00;0.00;;;;;;;;4921581;28;45261;-83
2023/12/05 05:43:59;;;;;;;;;0.00;0.00;;;;;;;;4903865;28;48205;-83
2023/12/05 05:46:24;;;;;;;;;0.00;0.00;;;;;;;;4922140;28;45339;-84
2023/12/05 05:48:50;;;;;;;;;0.00;0.00;;;;;;;;4904594;28;45377;-85
2023/12/05 05:51:15;;;;;;;;;0.00;0.00;;;;;;;;4922158;28;45261;-84
2023/12/05 05:53:40;;;;;;;;;2.33;1.00;;;;;;;;4922070;28;45353;-84
2023/12/05 05:56:05;;;;;;;;;1.00;1.00;;;;;;;;4905860;28;45782;-83
2023/12/05 05:58:31;;;;;;;;;0.67;0.67;;;;;;;;4907319;28;45252;-85
2023/12/05 06:00:56;;;;;;;;;0.67;0.00;;;;;;;;4924669;28;45425;-83
2023/12/05 06:03:22;;;;;;;;;0.00;0.00;;;;;;;;4924389;28;46136;-83
2023/12/05 06:05:48;;;;;;;;;1.00;1.00;;;;;;;;4924503;28;45325;-82
2023/12/05 06:08:13;;;;;;;;;0.00;0.00;;;;;;;;4907155;28;45260;-85
2023/12/05 06:10:38;;;;;;;;;1.00;1.00;;;;;;;;4907172;28;46338;-82
2023/12/05 06:13:04;;;;;;;;;0.00;0.00;;;;;;;;4906585;28;47465;-84
2023/12/05 06:15:29;;;;;;;;;1.00;1.00;;;;;;;;4907046;28;45357;-84
2023/12/05 06:17:57;;;;;;;;;1.00;1.00;;;;;;;;4923943;28;45343;-82
2023/12/05 06:20:22;;;;;;;;;1.33;1.33;;;;;;;;4906321;28;47440;-83
2023/12/05 06:22:48;;;;;;;;;0.67;0.00;;;;;;;;4907109;28;47447;-82
2023/12/05 06:25:13;;;;;;;;;1.00;1.00;;;;;;;;4924098;28;45351;-85
2023/12/05 06:27:38;;;;;;;;;0.00;0.00;;;;;;;;4923781;28;45301;-86
2023/12/05 06:30:03;;;;;;;;;1.00;1.00;;;;;;;;4905887;28;45978;-81
2023/12/05 06:32:29;;;;;;;;;1.33;1.00;;;;;;;;4905478;28;48301;-82
2023/12/05 06:34:54;;;;;;;;;1.33;1.33;;;;;;;;4906404;28;45283;-83
2023/12/05 06:37:20;;;;;;;;;2.67;2.67;;;;;;;;4924154;28;45336;-81
2023/12/05 06:39:45;;;;;;;;;1.33;1.00;;;;;;;;4923893;28;45226;-81
2023/12/05 06:42:11;;;;;;;;;1.00;1.00;;;;;;;;4923883;28;45280;-83
2023/12/05 06:44:36;;;;;;;;;0.00;0.00;;;;;;;;4923863;28;45276;-79
2023/12/05 06:47:01;;;;;;;;;3.67;2.00;;;;;;;;4923928;28;45218;-79
2023/12/05 06:49:26;;;;;;;;;3.00;2.67;;;;;;;;4925863;28;45700;-77
2023/12/05 06:51:56;;;;;;;;;1.00;1.00;;;;;;;;4925856;28;46011;-77
2023/12/05 06:54:22;;;;;;;;;1.33;1.00;;;;;;;;4927935;28;45285;-76
2023/12/05 06:56:47;;;;;;;;;1.00;1.00;;;;;;;;4926039;28;45363;-77
2023/12/05 06:59:13;;;;;;;;;1.00;1.00;;;;;;;;4911213;28;45917;-77
2023/12/05 07:01:39;;;;;;;;;1.33;1.33;;;;;;;;4908263;28;48115;-77
2023/12/05 07:04:04;;;;;;;;;1.00;1.00;;;;;;;;4928043;28;45352;-77
2023/12/05 07:06:29;;;;;;;;;0.00;0.00;;;;;;;;4927186;28;45341;-77
2023/12/05 07:08:54;;;;;;;;;1.00;1.00;;;;;;;;4925250;28;45317;-77
2023/12/05 07:11:19;;;;;;;;;2.00;2.00;;;;;;;;4925732;28;45291;-77
2023/12/05 07:13:45;;;;;;;;;1.00;1.00;;;;;;;;4927076;28;45329;-77
2023/12/05 07:16:11;;;;;;;;;2.67;2.67;;;;;;;;4928475;28;45317;-77
2023/12/05 07:18:37;;;;;;;;;2.00;2.00;;;;;;;;4928428;28;45184;-77
2023/12/05 07:21:03;;;;;;;;;1.33;1.33;;;;;;;;4929578;28;45309;-77
2023/12/05 07:23:28;;;;;;;;;2.00;2.00;;;;;;;;4913981;28;45385;-77
2023/12/05 07:25:56;;;;;;;;;2.00;2.00;;;;;;;;4927957;28;45502;-78
2023/12/05 07:28:21;;;;;;;;;3.00;2.00;;;;;;;;4928144;28;45220;-77
2023/12/05 07:30:46;;;;;;;;;3.00;3.00;;;;;;;;4928489;28;45364;-77
2023/12/05 07:33:11;;;;;;;;;3.33;3.33;;;;;;;;4928210;28;45233;-77
2023/12/05 07:35:36;;;;;;;;;6.00;6.00;;;;;;;;4927305;28;45607;-77
2023/12/05 07:38:02;;;;;;;;;4.67;4.67;;;;;;;;4909815;28;47021;-77
2023/12/05 07:40:27;;;;;;;;;2.00;2.00;;;;;;;;4926520;28;45307;-76
2023/12/05 07:42:52;;;;;;;;;3.00;3.00;;;;;;;;4927357;28;45248;-77
2023/12/05 07:45:19;;;;;;;;;2.67;2.00;;;;;;;;4926821;28;45367;-77
2023/12/05 07:47:46;;;;;;;;;3.33;2.00;;;;;;;;4907258;28;47203;-76
2023/12/05 07:50:12;;;;;;;;;2.00;2.00;;;;;;;;4927257;28;46221;-77
2023/12/05 07:52:37;;;;;;;;;2.00;2.00;;;;;;;;4926396;28;45346;-77
2023/12/05 07:55:02;;;;;;;;;2.00;2.00;;;;;;;;4926432;28;45267;-77
2023/12/05 07:57:27;;;;;;;;;6.33;6.33;;;;;;;;4909983;28;46647;-77
2023/12/05 07:59:52;;;;;;;;;2.00;2.00;;;;;;;;4928191;28;46306;-77
2023/12/05 08:02:18;;;;;;;;;2.33;2.00;;;;;;;;4917292;28;45472;-75
2023/12/05 08:04:43;;;;;;;;;1.00;1.00;;;;;;;;4917311;28;45545;-74
2023/12/05 08:07:08;;;;;;;;;3.33;2.67;;;;;;;;4922371;28;45490;-76
2023/12/05 08:09:33;;;;;;;;;3.33;3.00;;;;;;;;4921713;28;46107;-74
2023/12/05 08:11:59;;;;;;;;;3.67;3.00;;;;;;;;4889285;29;45364;-74
2023/12/05 08:14:24;;;;;;;;;2.00;2.00;;;;;;;;4902899;29;45439;-74
2023/12/05 08:16:50;;;;;;;;;3.00;3.00;;;;;;;;4885929;29;47086;-73
2023/12/05 08:19:15;;;;;;;;;2.67;2.00;;;;;;;;4885514;29;47104;-74
2023/12/05 08:21:40;;;;;;;;;2.67;2.67;;;;;;;;4885862;29;45420;-74
2023/12/05 08:24:05;;;;;;;;;3.00;2.00;;;;;;;;4886061;29;45344;-73
2023/12/05 08:26:31;;;;;;;;;6.00;5.33;;;;;;;;4903066;29;45497;-73
2023/12/05 08:28:57;;;;;;;;;4.00;4.00;;;;;;;;4902810;29;45345;-74
2023/12/05 08:31:22;;;;;;;;;4.00;4.00;;;;;;;;4902839;29;45285;-75
2023/12/05 08:33:47;;;;;;;;;5.67;5.67;;;;;;;;4885408;28;45313;-75
2023/12/05 08:36:13;;;;;;;;;4.33;4.00;;;;;;;;4894440;29;46303;-75
2023/12/05 08:38:38;;;;;;;;;5.00;4.67;;;;;;;;4902686;28;46269;-76
2023/12/05 08:41:03;;;;;;;;;3.00;3.00;;;;;;;;4902807;29;45326;-75
2023/12/05 08:43:28;;;;;;;;;5.00;5.00;;;;;;;;4907346;28;45276;-74
2023/12/05 08:45:54;;;;;;;;;5.33;5.33;;;;;;;;4893004;28;45996;-74
2023/12/05 08:48:19;;;;;;;;;3.00;3.00;;;;;;;;4911340;28;46136;-75
2023/12/05 08:50:44;;;;;;;;;3.33;3.33;;;;;;;;4920164;28;45311;-75
2023/12/05 08:53:09;;;;;;;;;5.67;5.67;;;;;;;;4919488;28;45602;-75
2023/12/05 08:55:34;;;;;;;;;3.67;3.67;;;;;;;;4895163;28;46954;-76
2023/12/05 08:57:59;;;;;;;;;4.25;4.00;;;;;;;;4893434;29;48253;-75
2023/12/05 09:00:25;;;;;;;;;6.00;5.67;;;;;;;;4909395;28;45177;-74
2023/12/05 09:02:50;;;;;;;;;3.00;3.00;;;;;;;;4921854;28;45290;-74
2023/12/05 09:05:15;;;;;;;;;7.33;7.33;;;;;;;;4921480;28;45205;-75
2023/12/05 09:07:40;;;;;;;;;4.33;3.33;;;;;;;;4921570;28;45293;-74
2023/12/05 09:10:06;;;;;;;;;2.00;2.00;;;;;;;;4917216;28;45355;-75
2023/12/05 09:12:32;;;;;;;;;4.67;4.00;;;;;;;;4902199;29;45212;-75
2023/12/05 09:14:57;;;;;;;;;3.00;3.00;;;;;;;;4902499;29;45336;-75
2023/12/05 09:17:22;;;;;;;;;5.33;5.33;;;;;;;;4902042;29;46219;-74
2023/12/05 09:19:50;;;;;;;;;4.33;4.00;;;;;;;;4885215;29;45341;-75
2023/12/05 09:22:15;;;;;;;;;2.00;2.00;;;;;;;;4902558;29;45369;-75
2023/12/05 09:24:40;;;;;;;;;4.33;4.00;;;;;;;;4902534;29;45371;-73
2023/12/05 09:27:05;;;;;;;;;3.00;3.00;;;;;;;;4890316;28;48138;-75
2023/12/05 09:29:31;;;;;;;;;2.67;2.67;;;;;;;;4904362;28;45620;-73
2023/12/05 09:31:56;;;;;;;;;2.00;2.00;;;;;;;;4924006;28;45369;-75
2023/12/05 09:34:21;;;;;;;;;6.00;4.00;;;;;;;;4923308;28;45400;-75
2023/12/05 09:36:46;;;;;;;;;3.67;3.67;;;;;;;;4924373;28;45379;-74
2023/12/05 09:39:11;;;;;;;;;4.00;4.00;;;;;;;;4924632;28;45400;-74
2023/12/05 09:41:57;;;;;;;;;4.33;4.00;;;;;;;;4924588;28;45591;-73
2023/12/05 09:44:23;;;;;;;;;4.67;4.00;;;;;;;;4923590;28;45330;-75
2023/12/05 09:46:50;;;;;;;;;7.00;5.00;;;;;;;;4901047;28;47335;-74
2023/12/05 09:49:17;;;;;;;;;7.67;7.67;;;;;;;;4912935;28;45265;-75
2023/12/05 09:51:42;;;;;;;;;2.33;2.33;;;;;;;;4909874;28;45328;-74
2023/12/05 09:54:08;;;;;;;;;3.00;3.00;;;;;;;;4887997;29;47059;-74
2023/12/05 09:56:35;;;;;;;;;2.33;2.33;;;;;;;;4889190;28;48386;-74
2023/12/05 09:59:01;;;;;;;;;9.00;6.00;;;;;;;;4906594;28;45373;-74
2023/12/05 10:01:27;;;;;;;;;3.00;3.00;;;;;;;;4924380;28;45562;-74
2023/12/05 10:03:53;;;;;;;;;4.00;4.00;;;;;;;;4918609;28;45450;-76
2023/12/05 10:06:19;;;;;;;;;2.00;1.00;;;;;;;;4911156;28;45750;-75
2023/12/05 10:08:45;;;;;;;;;3.00;3.00;;;;;;;;4890712;28;46050;-75
2023/12/05 10:11:11;;;;;;;;;5.00;2.67;;;;;;;;4921890;28;45209;-75
2023/12/05 10:13:38;;;;;;;;;2.00;2.00;;;;;;;;4900725;28;46703;-75
2023/12/05 10:16:04;;;;;;;;;5.00;5.00;;;;;;;;4919620;28;45410;-75
2023/12/05 10:18:30;;;;;;;;;2.00;2.00;;;;;;;;4923169;28;45447;-75
2023/12/05 10:20:55;;;;;;;;;2.00;2.00;;;;;;;;4920752;28;45326;-75
2023/12/05 10:23:21;;;;;;;;;4.00;2.67;;;;;;;;4922582;28;45327;-75
2023/12/05 10:25:46;;;;;;;;;2.00;2.00;;;;;;;;4922972;28;45593;-75
2023/12/05 10:28:12;;;;;;;;;4.00;3.00;;;;;;;;4922871;28;45460;-75
2023/12/05 10:30:38;;;;;;;;;3.00;3.00;;;;;;;;4923172;28;45379;-74
2023/12/05 10:33:09;;;;;;;;;6.33;5.00;;;;;;;;4922879;28;45305;-75
2023/12/05 10:35:34;;;;;;;;;3.00;3.00;;;;;;;;4905487;28;47319;-75
2023/12/05 10:38:06;;;;;;;;;3.33;3.00;;;;;;;;4921921;28;45375;-76
2023/12/05 10:40:48;;;;;;;;;3.00;2.33;;;;;;;;4917273;28;45235;-75
2023/12/05 10:43:13;;;;;;;;;1.00;1.00;;;;;;;;4910095;28;45345;-75
2023/12/05 10:45:38;;;;;;;;;2.00;2.00;;;;;;;;4922804;28;46263;-76
2023/12/05 10:48:04;;;;;;;;;3.00;3.00;;;;;;;;4905071;28;45222;-76
2023/12/05 10:50:30;;;;;;;;;3.00;3.00;;;;;;;;4905782;28;45393;-76
2023/12/05 10:52:56;;;;;;;;;3.00;3.00;;;;;;;;4905079;28;46298;-76
2023/12/05 10:55:24;;;;;;;;;2.00;2.00;;;;;;;;4904175;28;47927;-74
2023/12/05 10:57:50;;;;;;;;;4.67;4.67;;;;;;;;4920899;28;45422;-76
2023/12/05 11:00:15;;;;;;;;;4.00;4.00;;;;;;;;4906136;28;45293;-75
2023/12/05 11:02:40;;;;;;;;;4.00;4.00;;;;;;;;4923325;28;45533;-75
2023/12/05 11:05:08;;;;;;;;;2.33;2.33;;;;;;;;4923063;28;45637;-76
2023/12/05 11:07:33;;;;;;;;;4.00;4.00;;;;;;;;4905974;28;45292;-76
2023/12/05 11:09:58;;;;;;;;;2.67;2.67;;;;;;;;4905939;28;45377;-77
2023/12/05 11:12:24;;;;;;;;;3.67;3.67;;;;;;;;4922714;28;45283;-75
2023/12/05 11:14:52;;;;;;;;;3.00;3.00;;;;;;;;4905705;28;47046;-76
2023/12/05 11:17:19;;;;;;;;;3.00;3.00;;;;;;;;4922960;28;45332;-76
2023/12/05 11:19:59;;;;;;;;;4.00;3.00;;;;;;;;4922953;28;45283;-75
2023/12/05 11:22:43;;;;;;;;;3.00;2.00;;;;;;;;4905265;28;46232;-75
2023/12/05 11:25:27;;;;;;;;;3.67;3.67;;;;;;;;4922252;28;46194;-75
2023/12/05 11:28:12;;;;;;;;;6.00;4.00;;;;;;;;4870676;29;46301;-76
2023/12/05 11:30:50;;;;;;;;;3.00;3.00;;;;;;;;4906466;28;45435;-74
2023/12/05 11:33:36;;;;;;;;;3.67;2.67;;;;;;;;4895889;28;45365;-75
2023/12/05 11:36:16;;;;;;;;;5.67;4.33;;;;;;;;4887086;28;46236;-74
2023/12/05 11:38:42;;;;;;;;;3.67;3.67;;;;;;;;4902301;28;45345;-75
2023/12/05 11:41:14;;;;;;;;;4.00;4.00;;;;;;;;4922293;28;45408;-76
2023/12/05 11:43:43;;;;;;;;;6.00;4.00;;;;;;;;4914039;28;46753;-76
2023/12/05 11:46:08;;;;;;;;;3.00;3.00;;;;;;;;4894727;29;47984;-76
2023/12/05 11:48:34;;;;;;;;;1.67;1.67;;;;;;;;4905507;28;45315;-74
2023/12/05 11:51:00;;;;;;;;;6.33;6.00;;;;;;;;4919985;28;45286;-75
2023/12/05 11:53:25;;;;;;;;;14.67;12.67;;;;;;;;4900645;28;47368;-75
2023/12/05 11:55:50;;;;;;;;;5.33;5.33;;;;;;;;4921205;28;45352;-74
2023/12/05 11:58:34;;;;;;;;;6.00;5.00;;;;;;;;4902844;28;45493;-76
2023/12/05 12:01:09;;;;;;;;;5.67;5.67;;;;;;;;4903152;29;45238;-74
2023/12/05 12:03:48;;;;;;;;;7.00;6.00;;;;;;;;4901431;28;45467;-74
2023/12/05 12:06:21;;;;;;;;;4.33;4.00;;;;;;;;4911756;28;47365;-75
2023/12/05 12:08:48;;;;;;;;;8.00;8.00;;;;;;;;4894727;28;45403;-74
2023/12/05 12:11:14;;;;;;;;;6.67;6.00;;;;;;;;4899504;28;46642;-75
2023/12/05 12:13:39;;;;;;;;;9.00;7.67;;;;;;;;4919961;28;45327;-76
2023/12/05 12:16:04;;;;;;;;;6.00;5.00;;;;;;;;4915726;28;46336;-76
2023/12/05 12:18:30;;;;;;;;;9.00;9.00;;;;;;;;4918450;28;45385;-74
2023/12/05 12:20:56;;;;;;;;;5.67;5.67;;;;;;;;4912158;28;45506;-73
2023/12/05 12:23:21;;;;;;;;;9.33;8.67;;;;;;;;4920202;28;45672;-76
2023/12/05 12:25:50;;;;;;;;;7.33;6.67;;;;;;;;4911384;28;45751;-76
2023/12/05 12:28:26;;;;;;;;;8.00;8.00;;;;;;;;4894881;28;45840;-76
2023/12/05 12:30:51;;;;;;;;;8.00;6.67;;;;;;;;4900793;28;45324;-76
2023/12/05 12:33:16;;;;;;;;;11.00;7.67;;;;;;;;4918970;28;45565;-76
2023/12/05 12:35:42;;;;;;;;;7.67;7.00;;;;;;;;4920032;28;46145;-76
2023/12/05 12:38:09;;;;;;;;;12.67;11.00;;;;;;;;4901120;28;45457;-76
2023/12/05 12:40:34;;;;;;;;;10.00;7.00;;;;;;;;4919687;28;45435;-76
2023/12/05 12:42:59;;;;;;;;;10.33;8.00;;;;;;;;4919373;28;45578;-76
2023/12/05 12:45:25;;;;;;;;;8.67;7.67;;;;;;;;4901827;28;47997;-76
2023/12/05 12:47:51;;;;;;;;;6.67;6.67;;;;;;;;4920039;28;45374;-76
2023/12/05 12:50:16;;;;;;;;;14.00;12.00;;;;;;;;4901712;28;45436;-76
2023/12/05 12:52:42;;;;;;;;;15.00;14.33;;;;;;;;4920189;28;45585;-77
2023/12/05 12:55:07;;;;;;;;;15.00;12.33;;;;;;;;4919622;28;45428;-76
2023/12/05 12:57:33;;;;;;;;;10.33;10.33;;;;;;;;4919777;28;45359;-76
2023/12/05 13:00:00;;;;;;;;;11.00;10.33;;;;;;;;4920167;28;45364;-76
2023/12/05 13:02:25;;;;;;;;;8.33;8.33;;;;;;;;4908386;28;45521;-76
2023/12/05 13:04:53;;;;;;;;;5.67;5.67;;;;;;;;4892070;28;47314;-76
2023/12/05 13:07:21;;;;;;;;;11.33;8.00;;;;;;;;4901009;28;47832;-76
2023/12/05 13:09:46;;;;;;;;;9.33;7.00;;;;;;;;4909911;28;45517;-77
2023/12/05 13:12:12;;;;;;;;;4.33;3.00;;;;;;;;4905945;28;46405;-76
2023/12/05 13:14:37;;;;;;;;;8.67;7.00;;;;;;;;4922873;28;45701;-77
2023/12/05 13:17:08;;;;;;;;;6.00;6.00;;;;;;;;4906209;28;45578;-76
2023/12/05 13:19:35;;;;;;;;;10.00;8.33;;;;;;;;4905717;28;45449;-77
2023/12/05 13:22:01;;;;;;;;;6.00;6.00;;;;;;;;4918675;28;45818;-77
2023/12/05 13:24:26;;;;;;;;;9.33;8.33;;;;;;;;4899304;28;47498;-76
2023/12/05 13:26:52;;;;;;;;;11.67;11.00;;;;;;;;4921739;28;45477;-76
2023/12/05 13:29:17;;;;;;;;;5.67;5.67;;;;;;;;4922928;28;45335;-76
2023/12/05 13:31:43;;;;;;;;;8.00;6.00;;;;;;;;4904539;28;46161;-75
2023/12/05 13:34:08;;;;;;;;;7.33;7.33;;;;;;;;4921649;28;45610;-76
2023/12/05 13:36:33;;;;;;;;;6.00;6.00;;;;;;;;4922322;28;45605;-76
2023/12/05 13:38:59;;;;;;;;;6.00;6.00;;;;;;;;4921095;28;45356;-77
2023/12/05 13:41:24;;;;;;;;;6.00;5.00;;;;;;;;4921493;28;45392;-77
2023/12/05 13:43:50;;;;;;;;;6.33;6.33;;;;;;;;4921437;28;45507;-77
2023/12/05 13:46:16;;;;;;;;;5.33;5.33;;;;;;;;4917070;28;45716;-76
2023/12/05 13:48:42;;;;;;;;;8.00;8.00;;;;;;;;4913907;28;45781;-76
2023/12/05 13:51:07;;;;;;;;;9.00;7.33;;;;;;;;4886585;29;46353;-75
2023/12/05 13:53:33;;;;;;;;;3.00;3.00;;;;;;;;4915857;28;46459;-76
2023/12/05 13:55:58;;;;;;;;;6.33;6.33;;;;;;;;4905753;28;45984;-76
2023/12/05 13:58:23;;;;;;;;;3.67;3.67;;;;;;;;4905434;28;45734;-76
2023/12/05 14:00:48;;;;;;;;;4.00;3.67;;;;;;;;4922710;28;45468;-76
2023/12/05 14:03:13;;;;;;;;;6.33;6.00;;;;;;;;4922455;28;45921;-75
2023/12/05 14:05:40;;;;;;;;;6.67;6.67;;;;;;;;4923149;28;45340;-76
2023/12/05 14:08:06;;;;;;;;;7.33;7.33;;;;;;;;4905233;28;45419;-76
2023/12/05 14:10:31;;;;;;;;;6.00;6.00;;;;;;;;4905446;28;47342;-75
2023/12/05 14:12:56;;;;;;;;;8.00;8.00;;;;;;;;4922178;28;45582;-77
2023/12/05 14:15:21;;;;;;;;;7.00;6.00;;;;;;;;4922799;28;45389;-77
2023/12/05 14:17:46;;;;;;;;;7.00;5.33;;;;;;;;4922358;28;45625;-77
2023/12/05 14:20:11;;;;;;;;;10.00;8.67;;;;;;;;4922360;28;45628;-76
2023/12/05 14:22:37;;;;;;;;;10.00;10.00;;;;;;;;4921803;28;45396;-77
2023/12/05 14:25:03;;;;;;;;;12.00;10.67;;;;;;;;4901895;28;45522;-77
2023/12/05 14:27:28;;;;;;;;;10.00;9.00;;;;;;;;4921833;28;45671;-76
2023/12/05 14:29:53;;;;;;;;;6.33;5.00;;;;;;;;4920408;28;45327;-76
2023/12/05 14:32:18;;;;;;;;;8.33;6.33;;;;;;;;4911046;28;45882;-79
2023/12/05 14:34:43;;;;;;;;;11.67;9.00;;;;;;;;4904644;28;45343;-77
2023/12/05 14:37:09;;;;;;;;;6.00;6.00;;;;;;;;4921731;28;45166;-75